createdAt,value
2022-09-18T00:00:59.490Z,10.11
2022-09-18T00:03:47.377Z,10.14
2022-09-18T00:06:38.518Z,10.14
2022-09-18T00:09:27.065Z,10.14
2022-09-18T00:12:14.656Z,10.13
2022-09-18T00:15:01.460Z,10.11
2022-09-18T00:17:48.464Z,10.09
2022-09-18T00:20:36.394Z,10.04
2022-09-18T00:23:23.443Z,9.97
2022-09-18T00:26:12.544Z,9.94
2022-09-18T00:28:59.816Z,9.92
2022-09-18T00:31:46.949Z,9.90
2022-09-18T00:34:34.824Z,9.88
2022-09-18T00:37:22.907Z,9.86
2022-09-18T00:40:11.143Z,9.85
2022-09-18T00:43:26.298Z,9.81
2022-09-18T00:46:31.478Z,9.77
2022-09-18T00:49:26.459Z,9.76
2022-09-18T00:52:17.428Z,9.79
2022-09-18T00:55:10.083Z,9.79
2022-09-18T00:57:59.075Z,9.79
2022-09-18T01:04:30.117Z,9.75
2022-09-18T01:07:45.054Z,9.73
2022-09-18T01:10:40.122Z,9.73
2022-09-18T01:13:57.918Z,9.69
2022-09-18T01:16:53.075Z,9.70
2022-09-18T01:20:02.372Z,9.66
2022-09-18T01:23:32.698Z,9.63
2022-09-18T01:26:53.159Z,9.64
2022-09-18T01:29:58.297Z,9.60
2022-09-18T01:32:56.876Z,9.57
2022-09-18T01:35:48.588Z,9.53
2022-09-18T01:38:39.389Z,9.53
2022-09-18T01:41:29.933Z,9.48
2022-09-18T01:44:21.452Z,9.45
2022-09-18T01:47:12.988Z,9.43
2022-09-18T01:50:02.006Z,9.41
2022-09-18T01:52:59.672Z,9.42
2022-09-18T01:55:52.432Z,9.40
2022-09-18T01:58:39.939Z,9.37
2022-09-18T02:01:31.272Z,9.32
2022-09-18T02:04:29.437Z,9.34
2022-09-18T02:07:28.283Z,9.31
2022-09-18T02:10:15.907Z,9.29
2022-09-18T02:13:07.297Z,9.26
2022-09-18T02:16:01.032Z,9.24
2022-09-18T02:18:53.728Z,9.26
2022-09-18T02:21:42.949Z,9.22
2022-09-18T02:24:34.589Z,9.19
2022-09-18T02:27:26.688Z,9.16
2022-09-18T02:30:14.099Z,9.14
2022-09-18T02:33:01.283Z,9.15
2022-09-18T02:36:01.642Z,9.15
2022-09-18T02:39:01.705Z,9.10
2022-09-18T02:42:13.142Z,9.07
2022-09-18T02:45:35.380Z,9.06
2022-09-18T02:48:59.920Z,9.06
2022-09-18T02:51:51.733Z,9.04
2022-09-18T02:54:59.396Z,9.04
2022-09-18T02:58:01.948Z,9.04
2022-09-18T03:00:50.650Z,9.04
2022-09-18T03:03:41.313Z,9.05
2022-09-18T03:06:30.992Z,9.06
2022-09-18T03:09:18.822Z,9.05
2022-09-18T03:12:09.027Z,9.04
2022-09-18T03:15:02.110Z,8.97
2022-09-18T03:17:48.908Z,8.95
2022-09-18T03:20:36.989Z,8.90
2022-09-18T03:23:26.161Z,8.89
2022-09-18T03:26:23.490Z,8.83
2022-09-18T03:29:12.031Z,8.74
2022-09-18T03:32:00.930Z,8.65
2022-09-18T03:34:48.590Z,8.61
2022-09-18T03:37:36.399Z,8.56
2022-09-18T03:40:25.630Z,8.52
2022-09-18T03:43:13.003Z,8.48
2022-09-18T03:46:01.440Z,8.46
2022-09-18T03:48:51.855Z,8.45
2022-09-18T03:51:39.641Z,8.43
2022-09-18T03:54:27.367Z,8.39
2022-09-18T03:57:37.601Z,8.33
2022-09-18T04:00:53.795Z,8.27
2022-09-18T04:03:43.816Z,8.22
2022-09-18T04:07:07.762Z,8.19
2022-09-18T04:10:10.672Z,8.15
2022-09-18T04:12:59.189Z,8.13
2022-09-18T04:15:51.271Z,8.12
2022-09-18T04:18:38.800Z,8.07
2022-09-18T04:21:26.263Z,8.03
2022-09-18T04:24:13.173Z,7.99
2022-09-18T04:27:00.241Z,8.00
2022-09-18T04:29:48.201Z,7.99
2022-09-18T04:32:36.077Z,7.95
2022-09-18T04:35:27.375Z,7.90
2022-09-18T04:38:14.626Z,7.91
2022-09-18T04:41:02.059Z,7.91
2022-09-18T04:43:50.221Z,7.89
2022-09-18T04:46:38.607Z,7.92
2022-09-18T04:49:26.036Z,7.93
2022-09-18T04:52:13.714Z,7.92
2022-09-18T04:55:00.578Z,7.91
2022-09-18T04:57:51.234Z,7.89
2022-09-18T05:00:41.978Z,7.91
2022-09-18T05:03:29.957Z,7.94
2022-09-18T05:06:17.864Z,8.01
2022-09-18T05:09:06.022Z,8.04
2022-09-18T05:11:54.628Z,8.10
2022-09-18T05:14:42.503Z,8.13
2022-09-18T05:17:32.838Z,8.14
2022-09-18T05:20:22.758Z,8.17
2022-09-18T05:23:09.989Z,8.24
2022-09-18T05:25:57.066Z,8.24
2022-09-18T05:28:44.583Z,8.26
2022-09-18T05:31:32.318Z,8.33
2022-09-18T05:34:19.886Z,8.36
2022-09-18T05:37:07.308Z,8.40
2022-09-18T05:39:54.989Z,8.45
2022-09-18T05:42:47.651Z,8.47
2022-09-18T05:45:35.183Z,8.50
2022-09-18T05:48:26.849Z,8.51
2022-09-18T05:51:14.462Z,8.54
2022-09-18T05:54:02.866Z,8.52
2022-09-18T05:57:02.505Z,8.53
2022-09-18T05:59:50.567Z,8.54
2022-09-18T06:02:38.225Z,8.59
2022-09-18T06:05:35.971Z,8.62
2022-09-18T06:08:23.123Z,8.63
2022-09-18T06:11:10.499Z,8.68
2022-09-18T06:13:57.616Z,8.76
2022-09-18T06:16:44.997Z,8.83
2022-09-18T06:19:32.964Z,8.95
2022-09-18T06:22:20.243Z,9.03
2022-09-18T06:25:07.615Z,9.11
2022-09-18T06:28:00.477Z,9.20
2022-09-18T06:30:47.810Z,9.32
2022-09-18T06:33:36.414Z,9.35
2022-09-18T06:36:23.159Z,9.40
2022-09-18T06:39:30.703Z,9.49
2022-09-18T06:42:18.928Z,9.54
2022-09-18T06:45:19.478Z,9.57
2022-09-18T06:48:07.387Z,9.57
2022-09-18T06:50:57.631Z,9.65
2022-09-18T06:53:45.126Z,9.72
2022-09-18T06:56:32.123Z,9.80
2022-09-18T06:59:19.517Z,9.91
2022-09-18T07:02:18.640Z,10.01
2022-09-18T07:05:13.312Z,10.01
2022-09-18T07:08:01.789Z,10.03
2022-09-18T07:10:51.181Z,10.04
2022-09-18T07:13:38.347Z,10.12
2022-09-18T07:16:26.193Z,10.16
2022-09-18T07:19:13.758Z,10.22
2022-09-18T07:22:00.595Z,10.22
2022-09-18T07:24:52.076Z,10.23
2022-09-18T07:27:39.485Z,10.25
2022-09-18T07:30:26.487Z,10.36
2022-09-18T07:33:14.197Z,10.44
2022-09-18T07:36:06.570Z,10.53
2022-09-18T07:38:55.881Z,10.58
2022-09-18T07:41:45.623Z,10.62
2022-09-18T07:44:34.414Z,10.75
2022-09-18T07:47:22.016Z,10.80
2022-09-18T07:50:15.602Z,10.81
2022-09-18T07:53:05.570Z,10.82
2022-09-18T07:55:57.489Z,10.81
2022-09-18T07:58:45.351Z,10.84
2022-09-18T08:01:38.583Z,10.91
2022-09-18T08:04:27.429Z,11.00
2022-09-18T08:07:21.593Z,11.04
2022-09-18T08:10:17.043Z,11.10
2022-09-18T08:13:11.999Z,11.19
2022-09-18T08:16:25.463Z,11.31
2022-09-18T08:19:31.160Z,11.36
2022-09-18T08:22:39.819Z,11.50
2022-09-18T08:25:28.180Z,11.43
2022-09-18T08:28:17.458Z,11.42
2022-09-18T08:31:11.113Z,11.43
2022-09-18T08:33:59.785Z,11.39
2022-09-18T08:36:48.341Z,11.34
2022-09-18T08:39:46.265Z,11.65
2022-09-18T08:43:35.345Z,12.03
2022-09-18T08:46:49.253Z,12.02
2022-09-18T08:50:05.347Z,11.97
2022-09-18T08:53:01.438Z,11.90
2022-09-18T08:56:02.128Z,11.78
2022-09-18T08:59:26.472Z,-128.00
2022-09-18T09:02:34.152Z,-128.00
2022-09-18T09:05:27.791Z,-128.00
2022-09-18T09:08:55.217Z,-128.00
2022-09-18T09:12:02.269Z,-128.00
2022-09-18T09:15:20.864Z,-128.00
2022-09-18T09:18:37.063Z,-128.00
2022-09-18T09:21:52.432Z,-128.00
2022-09-18T09:24:58.382Z,-128.00
2022-09-18T09:28:27.847Z,-128.00
2022-09-18T09:31:42.893Z,-128.00
2022-09-18T09:34:49.826Z,-128.00
2022-09-18T09:38:04.061Z,-128.00
2022-09-18T09:40:53.506Z,-128.00
2022-09-18T09:44:08.664Z,-128.00
2022-09-18T09:47:21.757Z,-128.00
2022-09-18T09:50:25.878Z,-128.00
2022-09-18T09:53:13.592Z,-128.00
2022-09-18T09:56:20.529Z,-128.00
2022-09-18T09:59:27.736Z,-128.00
2022-09-18T10:02:55.491Z,-128.00
2022-09-18T10:06:21.382Z,-128.00
2022-09-18T10:09:19.380Z,-128.00
2022-09-18T10:12:24.879Z,-128.00
2022-09-18T10:15:23.816Z,-128.00
2022-09-18T10:18:18.654Z,-128.00
2022-09-18T10:21:27.433Z,-128.00
2022-09-18T10:24:40.539Z,-128.00
2022-09-18T10:27:29.044Z,-128.00
2022-09-18T10:30:16.640Z,-128.00
2022-09-18T10:33:34.080Z,-128.00
2022-09-18T10:36:28.183Z,-128.00
2022-09-18T10:39:31.248Z,-12.22
2022-09-18T10:42:23.583Z,16.65
2022-09-18T10:45:28.661Z,16.67
2022-09-18T10:48:44.213Z,16.10
2022-09-18T10:51:31.562Z,15.47
2022-09-18T10:54:23.203Z,15.11
2022-09-18T10:57:28.893Z,14.70
2022-09-18T11:00:21.588Z,14.31
2022-09-18T11:03:35.006Z,14.16
2022-09-18T11:06:25.752Z,13.99
2022-09-18T11:09:31.056Z,14.05
2022-09-18T11:12:24.991Z,14.42
2022-09-18T11:15:17.207Z,14.66
2022-09-18T11:18:12.672Z,14.64
2022-09-18T11:21:04.476Z,14.89
2022-09-18T11:24:03.259Z,15.36
2022-09-18T11:26:57.534Z,15.65
2022-09-18T11:29:45.036Z,15.44
2022-09-18T11:32:36.216Z,15.08
2022-09-18T11:35:27.988Z,14.72
2022-09-18T11:38:30.341Z,14.41
2022-09-18T11:41:24.307Z,14.09
2022-09-18T11:44:15.817Z,13.92
2022-09-18T11:47:33.783Z,13.80
2022-09-18T11:50:24.907Z,14.31
2022-09-18T11:53:26.210Z,14.25
2022-09-18T11:56:20.138Z,14.53
2022-09-18T11:59:31.905Z,14.87
2022-09-18T12:02:30.714Z,14.68
2022-09-18T12:05:26.192Z,14.35
2022-09-18T12:08:23.309Z,14.70
2022-09-18T12:11:12.897Z,14.98
2022-09-18T12:14:20.729Z,15.44
2022-09-18T12:17:47.541Z,15.89
2022-09-18T12:20:46.117Z,15.49
2022-09-18T12:23:34.768Z,15.17
2022-09-18T12:26:31.844Z,14.81
2022-09-18T12:29:43.647Z,14.38
2022-09-18T12:32:58.344Z,14.03
2022-09-18T12:36:23.366Z,13.87
2022-09-18T12:39:20.546Z,13.57
2022-09-18T12:42:10.374Z,13.39
2022-09-18T12:45:22.627Z,13.26
2022-09-18T12:48:35.002Z,13.07
2022-09-18T12:51:36.628Z,12.81
2022-09-18T12:54:56.266Z,12.75
2022-09-18T12:58:12.726Z,12.74
2022-09-18T13:01:06.255Z,12.64
2022-09-18T13:03:55.968Z,12.60
2022-09-18T13:06:49.899Z,12.61
2022-09-18T13:09:50.397Z,12.61
2022-09-18T13:12:44.935Z,12.59
2022-09-18T13:15:42.686Z,12.64
2022-09-18T13:18:52.636Z,12.66
2022-09-18T13:21:43.007Z,12.64
2022-09-18T13:24:35.342Z,12.55
2022-09-18T13:27:25.170Z,12.51
2022-09-18T13:30:22.723Z,12.27
2022-09-18T13:33:26.278Z,12.21
2022-09-18T13:36:22.876Z,12.24
2022-09-18T13:39:21.890Z,12.24
2022-09-18T13:42:09.317Z,12.14
2022-09-18T13:45:04.164Z,12.10
2022-09-18T13:48:29.839Z,12.09
2022-09-18T13:51:25.415Z,12.00
2022-09-18T13:54:13.831Z,11.90
2022-09-18T13:57:05.107Z,11.87
2022-09-18T14:00:01.191Z,11.87
2022-09-18T14:03:09.673Z,11.78
2022-09-18T14:05:56.748Z,11.62
2022-09-18T14:08:43.661Z,11.58
2022-09-18T14:11:30.703Z,11.62
2022-09-18T14:14:22.966Z,11.62
2022-09-18T14:17:16.309Z,11.58
2022-09-18T14:20:18.289Z,11.45
2022-09-18T14:23:47.975Z,11.37
2022-09-18T14:26:37.244Z,11.33
2022-09-18T14:29:28.436Z,11.41
2022-09-18T14:32:19.393Z,11.51
2022-09-18T14:35:22.704Z,11.49
2022-09-18T14:38:27.683Z,11.42
2022-09-18T14:41:21.088Z,11.38
2022-09-18T14:44:16.383Z,11.43
2022-09-18T14:47:06.566Z,11.46
2022-09-18T14:49:56.267Z,11.55
2022-09-18T14:52:44.092Z,11.63
2022-09-18T14:55:42.208Z,11.77
2022-09-18T14:58:38.565Z,11.86
2022-09-18T15:01:35.267Z,11.97
2022-09-18T15:04:26.151Z,12.09
2022-09-18T15:07:21.605Z,12.09
2022-09-18T15:10:09.896Z,12.07
2022-09-18T15:12:58.758Z,12.02
2022-09-18T15:15:46.630Z,11.97
2022-09-18T15:18:42.606Z,11.88
2022-09-18T15:21:34.366Z,11.77
2022-09-18T15:24:21.614Z,11.66
2022-09-18T15:27:14.453Z,11.60
2022-09-18T15:30:14.358Z,11.59
2022-09-18T15:33:07.786Z,11.57
2022-09-18T15:35:56.573Z,11.57
2022-09-18T15:38:46.252Z,11.54
2022-09-18T15:41:45.791Z,11.52
2022-09-18T15:45:02.101Z,11.49
2022-09-18T15:47:50.348Z,11.48
2022-09-18T15:50:39.535Z,11.48
2022-09-18T15:53:28.729Z,11.43
2022-09-18T15:56:21.306Z,11.36
2022-09-18T15:59:27.610Z,11.35
2022-09-18T16:02:29.364Z,11.38
2022-09-18T16:05:16.218Z,11.39
2022-09-18T16:08:06.101Z,11.40
2022-09-18T16:10:54.161Z,11.35
2022-09-18T16:13:41.435Z,11.39
2022-09-18T16:16:28.697Z,11.40
2022-09-18T16:19:30.908Z,11.41
2022-09-18T16:22:17.661Z,11.37
2022-09-18T16:25:19.254Z,11.32
2022-09-18T16:28:23.255Z,11.25
2022-09-18T16:31:13.385Z,11.16
2022-09-18T16:34:18.247Z,11.02
2022-09-18T16:37:08.332Z,10.88
2022-09-18T16:39:55.063Z,10.81
2022-09-18T16:42:42.383Z,10.75
2022-09-18T16:45:29.437Z,10.66
2022-09-18T16:48:17.543Z,10.65
2022-09-18T16:51:05.185Z,10.61
2022-09-18T16:53:53.113Z,10.52
2022-09-18T16:56:51.760Z,10.48
2022-09-18T16:59:41.719Z,10.43
2022-09-18T17:02:31.711Z,10.38
2022-09-18T17:05:18.968Z,10.34
2022-09-18T17:08:06.015Z,10.28
2022-09-18T17:10:57.943Z,10.16
2022-09-18T17:13:51.482Z,10.12
2022-09-18T17:16:45.003Z,10.02
2022-09-18T17:19:32.464Z,9.89
2022-09-18T17:22:22.608Z,9.77
2022-09-18T17:25:11.686Z,9.67
2022-09-18T17:27:59.366Z,9.62
2022-09-18T17:30:47.260Z,9.60
2022-09-18T17:33:35.164Z,9.56
2022-09-18T17:36:23.158Z,9.52
2022-09-18T17:39:10.599Z,9.54
2022-09-18T17:41:59.582Z,9.51
2022-09-18T17:44:47.260Z,9.47
2022-09-18T17:47:34.609Z,9.40
2022-09-18T17:50:22.425Z,9.30
2022-09-18T17:53:09.823Z,9.25
2022-09-18T17:56:00.854Z,9.27
2022-09-18T17:58:48.562Z,9.26
2022-09-18T18:01:38.836Z,9.22
2022-09-18T18:04:27.416Z,9.22
2022-09-18T18:07:14.853Z,9.25
2022-09-18T18:10:02.651Z,9.26
2022-09-18T18:12:56.317Z,9.25
2022-09-18T18:15:43.772Z,9.27
2022-09-18T18:18:34.700Z,9.38
2022-09-18T18:21:24.404Z,9.34
2022-09-18T18:24:15.646Z,9.31
2022-09-18T18:27:04.793Z,9.31
2022-09-18T18:29:52.846Z,9.30
2022-09-18T18:32:43.384Z,9.26
2022-09-18T18:35:31.429Z,9.24
2022-09-18T18:38:18.592Z,9.21
2022-09-18T18:41:14.161Z,9.21
2022-09-18T18:44:05.851Z,9.16
2022-09-18T18:46:53.924Z,9.15
2022-09-18T18:49:42.007Z,9.13
2022-09-18T18:52:31.344Z,9.12
2022-09-18T18:55:19.924Z,9.08
2022-09-18T18:58:14.193Z,9.03
2022-09-18T19:01:08.944Z,8.95
2022-09-18T19:04:00.957Z,8.93
2022-09-18T19:06:49.841Z,8.92
2022-09-18T19:09:39.668Z,8.89
2022-09-18T19:12:29.014Z,8.85
2022-09-18T19:15:18.323Z,8.78
2022-09-18T19:18:11.627Z,8.75
2022-09-18T19:21:05.086Z,8.70
2022-09-18T19:23:56.234Z,8.66
2022-09-18T19:26:45.788Z,8.66
2022-09-18T19:29:34.169Z,8.65
2022-09-18T19:32:22.418Z,8.62
2022-09-18T19:35:10.444Z,8.61
2022-09-18T19:37:58.495Z,8.59
2022-09-18T19:40:51.575Z,8.60
2022-09-18T19:43:40.441Z,8.59
2022-09-18T19:46:30.886Z,8.57
2022-09-18T19:49:26.247Z,8.52
2022-09-18T19:52:20.879Z,8.41
2022-09-18T19:55:16.412Z,8.30
2022-09-18T19:58:03.737Z,8.21
2022-09-18T20:00:51.198Z,8.15
2022-09-18T20:03:39.759Z,8.12
2022-09-18T20:06:27.289Z,8.07
2022-09-18T20:09:14.883Z,8.06
2022-09-18T20:12:02.466Z,8.06
2022-09-18T20:14:49.861Z,8.11
2022-09-18T20:17:38.309Z,8.10
2022-09-18T20:20:26.412Z,8.12
2022-09-18T20:23:13.668Z,8.14
2022-09-18T20:26:01.337Z,8.15
2022-09-18T20:28:48.803Z,8.15
2022-09-18T20:31:36.183Z,8.16
2022-09-18T20:34:25.290Z,8.16
2022-09-18T20:37:12.993Z,8.15
2022-09-18T20:40:02.279Z,8.15
2022-09-18T20:42:52.130Z,8.13
2022-09-18T20:45:40.161Z,8.12
2022-09-18T20:48:35.356Z,8.07
2022-09-18T20:51:25.931Z,8.03
2022-09-18T20:54:14.714Z,7.98
2022-09-18T20:57:01.874Z,7.95
2022-09-18T20:59:49.370Z,7.92
2022-09-18T21:02:36.923Z,7.94
2022-09-18T21:05:24.435Z,7.95
2022-09-18T21:08:11.831Z,7.96
2022-09-18T21:11:03.104Z,7.97
2022-09-18T21:13:55.996Z,8.00
2022-09-18T21:16:43.545Z,8.02
2022-09-18T21:19:30.682Z,8.05
2022-09-18T21:22:17.979Z,8.12
2022-09-18T21:25:05.466Z,8.16
2022-09-18T21:27:55.724Z,8.18
2022-09-18T21:30:43.047Z,8.23
2022-09-18T21:33:32.250Z,8.26
2022-09-18T21:36:24.135Z,8.27
2022-09-18T21:39:13.310Z,8.29
2022-09-18T21:42:01.883Z,8.32
2022-09-18T21:44:49.398Z,8.34
2022-09-18T21:47:37.305Z,8.37
2022-09-18T21:50:24.483Z,8.40
2022-09-18T21:53:11.520Z,8.45
2022-09-18T21:56:07.171Z,8.49
2022-09-18T21:58:55.760Z,8.51
2022-09-18T22:01:43.674Z,8.50
2022-09-18T22:04:32.555Z,8.52
2022-09-18T22:07:19.603Z,8.51
2022-09-18T22:10:07.662Z,8.51
2022-09-18T22:12:55.053Z,8.50
2022-09-18T22:15:42.391Z,8.51
2022-09-18T22:18:30.445Z,8.51
2022-09-18T22:21:28.627Z,8.49
2022-09-18T22:24:19.124Z,8.49
2022-09-18T22:27:08.837Z,8.47
2022-09-18T22:29:56.007Z,8.49
2022-09-18T22:32:42.685Z,8.53
2022-09-18T22:35:29.495Z,8.55
2022-09-18T22:38:16.531Z,8.57
2022-09-18T22:41:08.016Z,8.57
2022-09-18T22:43:56.346Z,8.55
2022-09-18T22:46:45.372Z,8.56
2022-09-18T22:49:32.443Z,8.54
2022-09-18T22:52:19.383Z,8.54
2022-09-18T22:55:06.809Z,8.57
2022-09-18T22:57:53.801Z,8.63
2022-09-18T23:00:41.159Z,8.66
2022-09-18T23:03:27.956Z,8.70
2022-09-18T23:06:16.404Z,8.72
2022-09-18T23:09:04.743Z,8.73
2022-09-18T23:11:53.451Z,8.76
2022-09-18T23:14:41.018Z,8.78
2022-09-18T23:17:28.021Z,8.84
2022-09-18T23:20:15.582Z,8.87
2022-09-18T23:23:02.980Z,8.88
2022-09-18T23:25:49.904Z,8.89
2022-09-18T23:28:39.252Z,8.90
2022-09-18T23:31:35.480Z,8.90
2022-09-18T23:34:25.738Z,8.88
2022-09-18T23:37:12.516Z,8.83
2022-09-18T23:39:59.899Z,8.79
2022-09-18T23:42:47.954Z,8.78
2022-09-18T23:45:35.199Z,8.74
2022-09-18T23:48:22.460Z,8.73
2022-09-18T23:51:14.273Z,8.71
2022-09-18T23:54:03.594Z,8.71
2022-09-18T23:56:51.258Z,8.64
2022-09-18T23:59:38.002Z,8.61
